sensor_id;sensor_type;location;lat;lon;timestamp;P1;durP1;ratioP1;P2;durP2;ratioP2
69629;SDS011;56857;52.212;5.496;2023-12-28T00:00:32;9.80;;;3.77;;
69629;SDS011;56857;52.212;5.496;2023-12-28T00:02:57;8.38;;;4.10;;
69629;SDS011;56857;52.212;5.496;2023-12-28T00:05:22;7.00;;;4.07;;
69629;SDS011;56857;52.212;5.496;2023-12-28T00:07:47;7.57;;;3.65;;
69629;SDS011;56857;52.212;5.496;2023-12-28T00:10:13;7.17;;;3.20;;
69629;SDS011;56857;52.212;5.496;2023-12-28T00:12:38;8.38;;;3.50;;
69629;SDS011;56857;52.212;5.496;2023-12-28T00:15:04;11.05;;;3.40;;
69629;SDS011;56857;52.212;5.496;2023-12-28T00:17:29;10.90;;;3.72;;
69629;SDS011;56857;52.212;5.496;2023-12-28T00:19:55;10.57;;;3.40;;
69629;SDS011;56857;52.212;5.496;2023-12-28T00:22:20;10.23;;;4.20;;
69629;SDS011;56857;52.212;5.496;2023-12-28T00:24:45;12.27;;;4.53;;
69629;SDS011;56857;52.212;5.496;2023-12-28T00:27:11;10.60;;;3.50;;
69629;SDS011;56857;52.212;5.496;2023-12-28T00:29:36;7.85;;;3.67;;
69629;SDS011;56857;52.212;5.496;2023-12-28T00:32:01;5.78;;;2.72;;
69629;SDS011;56857;52.212;5.496;2023-12-28T00:34:26;8.60;;;3.60;;
69629;SDS011;56857;52.212;5.496;2023-12-28T00:36:52;10.80;;;5.00;;
69629;SDS011;56857;52.212;5.496;2023-12-28T00:39:17;11.85;;;4.53;;
69629;SDS011;56857;52.212;5.496;2023-12-28T00:41:42;8.18;;;4.10;;
69629;SDS011;56857;52.212;5.496;2023-12-28T00:44:08;10.32;;;3.97;;
69629;SDS011;56857;52.212;5.496;2023-12-28T00:46:33;11.02;;;4.15;;
69629;SDS011;56857;52.212;5.496;2023-12-28T00:48:58;16.27;;;4.60;;
69629;SDS011;56857;52.212;5.496;2023-12-28T00:51:24;8.63;;;3.83;;
69629;SDS011;56857;52.212;5.496;2023-12-28T00:53:49;8.38;;;4.05;;
69629;SDS011;56857;52.212;5.496;2023-12-28T00:56:14;10.13;;;3.92;;
69629;SDS011;56857;52.212;5.496;2023-12-28T00:58:40;6.95;;;3.15;;
69629;SDS011;56857;52.212;5.496;2023-12-28T01:01:05;8.35;;;4.07;;
69629;SDS011;56857;52.212;5.496;2023-12-28T01:03:30;7.68;;;3.90;;
69629;SDS011;56857;52.212;5.496;2023-12-28T01:05:56;11.05;;;4.05;;
69629;SDS011;56857;52.212;5.496;2023-12-28T01:08:21;10.98;;;3.78;;
69629;SDS011;56857;52.212;5.496;2023-12-28T01:10:46;8.25;;;3.58;;
69629;SDS011;56857;52.212;5.496;2023-12-28T01:13:12;8.75;;;2.72;;
69629;SDS011;56857;52.212;5.496;2023-12-28T01:15:37;11.52;;;4.22;;
69629;SDS011;56857;52.212;5.496;2023-12-28T01:18:03;8.88;;;3.20;;
69629;SDS011;56857;52.212;5.496;2023-12-28T01:20:28;8.60;;;3.67;;
69629;SDS011;56857;52.212;5.496;2023-12-28T01:22:53;8.60;;;4.23;;
69629;SDS011;56857;52.212;5.496;2023-12-28T01:25:19;8.00;;;4.00;;
69629;SDS011;56857;52.212;5.496;2023-12-28T01:27:44;9.30;;;3.67;;
69629;SDS011;56857;52.212;5.496;2023-12-28T01:30:09;10.07;;;3.28;;
69629;SDS011;56857;52.212;5.496;2023-12-28T01:32:35;9.82;;;3.75;;
69629;SDS011;56857;52.212;5.496;2023-12-28T01:35:00;10.23;;;2.95;;
69629;SDS011;56857;52.212;5.496;2023-12-28T01:37:25;10.90;;;3.37;;
69629;SDS011;56857;52.212;5.496;2023-12-28T01:39:51;8.63;;;2.65;;
69629;SDS011;56857;52.212;5.496;2023-12-28T01:42:16;7.57;;;3.60;;
69629;SDS011;56857;52.212;5.496;2023-12-28T01:44:41;5.88;;;3.10;;
69629;SDS011;56857;52.212;5.496;2023-12-28T01:47:07;5.13;;;2.83;;
69629;SDS011;56857;52.212;5.496;2023-12-28T01:49:32;8.50;;;3.97;;
69629;SDS011;56857;52.212;5.496;2023-12-28T01:52:00;7.80;;;3.42;;
69629;SDS011;56857;52.212;5.496;2023-12-28T01:54:26;8.52;;;3.22;;
69629;SDS011;56857;52.212;5.496;2023-12-28T01:56:52;7.95;;;3.28;;
69629;SDS011;56857;52.212;5.496;2023-12-28T01:59:17;7.38;;;3.47;;
69629;SDS011;56857;52.212;5.496;2023-12-28T02:01:43;7.47;;;2.72;;
69629;SDS011;56857;52.212;5.496;2023-12-28T02:04:08;7.03;;;3.40;;
69629;SDS011;56857;52.212;5.496;2023-12-28T02:06:33;7.68;;;2.55;;
69629;SDS011;56857;52.212;5.496;2023-12-28T02:08:59;9.63;;;3.28;;
69629;SDS011;56857;52.212;5.496;2023-12-28T02:11:24;7.07;;;3.13;;
69629;SDS011;56857;52.212;5.496;2023-12-28T02:13:50;10.68;;;3.70;;
69629;SDS011;56857;52.212;5.496;2023-12-28T02:16:49;6.65;;;3.65;;
69629;SDS011;56857;52.212;5.496;2023-12-28T02:22:14;9.65;;;4.38;;
69629;SDS011;56857;52.212;5.496;2023-12-28T02:27:20;8.93;;;3.50;;
69629;SDS011;56857;52.212;5.496;2023-12-28T02:29:46;11.13;;;5.05;;
69629;SDS011;56857;52.212;5.496;2023-12-28T02:32:11;11.15;;;3.70;;
69629;SDS011;56857;52.212;5.496;2023-12-28T02:34:37;8.05;;;3.25;;
69629;SDS011;56857;52.212;5.496;2023-12-28T02:37:07;14.27;;;3.75;;
69629;SDS011;56857;52.212;5.496;2023-12-28T02:39:34;7.90;;;3.05;;
69629;SDS011;56857;52.212;5.496;2023-12-28T02:42:01;9.85;;;3.38;;
69629;SDS011;56857;52.212;5.496;2023-12-28T02:44:26;10.13;;;2.95;;
69629;SDS011;56857;52.212;5.496;2023-12-28T02:46:51;6.40;;;3.10;;
69629;SDS011;56857;52.212;5.496;2023-12-28T02:49:17;10.43;;;3.55;;
69629;SDS011;56857;52.212;5.496;2023-12-28T02:51:42;13.82;;;3.40;;
69629;SDS011;56857;52.212;5.496;2023-12-28T02:54:08;9.82;;;3.22;;
69629;SDS011;56857;52.212;5.496;2023-12-28T02:56:33;10.30;;;3.33;;
69629;SDS011;56857;52.212;5.496;2023-12-28T02:58:58;7.75;;;2.90;;
69629;SDS011;56857;52.212;5.496;2023-12-28T03:01:23;9.00;;;3.05;;
69629;SDS011;56857;52.212;5.496;2023-12-28T03:03:49;10.07;;;2.97;;
69629;SDS011;56857;52.212;5.496;2023-12-28T03:06:14;8.32;;;2.67;;
69629;SDS011;56857;52.212;5.496;2023-12-28T03:08:39;7.75;;;2.30;;
69629;SDS011;56857;52.212;5.496;2023-12-28T03:11:05;9.43;;;2.92;;
69629;SDS011;56857;52.212;5.496;2023-12-28T03:13:30;7.73;;;3.23;;
69629;SDS011;56857;52.212;5.496;2023-12-28T03:15:55;7.80;;;2.80;;
69629;SDS011;56857;52.212;5.496;2023-12-28T03:18:20;9.73;;;2.58;;
69629;SDS011;56857;52.212;5.496;2023-12-28T03:20:46;7.07;;;2.47;;
69629;SDS011;56857;52.212;5.496;2023-12-28T03:23:11;9.70;;;2.72;;
69629;SDS011;56857;52.212;5.496;2023-12-28T03:25:37;7.80;;;3.00;;
69629;SDS011;56857;52.212;5.496;2023-12-28T03:28:02;9.50;;;2.72;;
69629;SDS011;56857;52.212;5.496;2023-12-28T03:30:27;10.70;;;2.83;;
69629;SDS011;56857;52.212;5.496;2023-12-28T03:32:53;8.73;;;2.80;;
69629;SDS011;56857;52.212;5.496;2023-12-28T03:35:18;8.90;;;2.92;;
69629;SDS011;56857;52.212;5.496;2023-12-28T03:37:43;11.70;;;2.90;;
69629;SDS011;56857;52.212;5.496;2023-12-28T03:40:09;8.43;;;3.20;;
69629;SDS011;56857;52.212;5.496;2023-12-28T03:42:35;9.73;;;3.10;;
69629;SDS011;56857;52.212;5.496;2023-12-28T03:45:00;9.35;;;3.22;;
69629;SDS011;56857;52.212;5.496;2023-12-28T03:47:25;6.93;;;2.90;;
69629;SDS011;56857;52.212;5.496;2023-12-28T03:49:50;9.57;;;2.58;;
69629;SDS011;56857;52.212;5.496;2023-12-28T03:52:16;10.67;;;3.03;;
69629;SDS011;56857;52.212;5.496;2023-12-28T03:54:41;8.60;;;2.78;;
69629;SDS011;56857;52.212;5.496;2023-12-28T03:57:06;7.37;;;2.90;;
69629;SDS011;56857;52.212;5.496;2023-12-28T03:59:32;9.90;;;2.70;;
69629;SDS011;56857;52.212;5.496;2023-12-28T04:01:57;11.23;;;3.27;;
69629;SDS011;56857;52.212;5.496;2023-12-28T04:04:22;11.10;;;2.97;;
69629;SDS011;56857;52.212;5.496;2023-12-28T04:06:48;11.80;;;2.53;;
69629;SDS011;56857;52.212;5.496;2023-12-28T04:09:13;7.75;;;2.90;;
69629;SDS011;56857;52.212;5.496;2023-12-28T04:11:39;11.82;;;3.10;;
69629;SDS011;56857;52.212;5.496;2023-12-28T04:14:04;9.57;;;2.83;;
69629;SDS011;56857;52.212;5.496;2023-12-28T04:16:29;8.10;;;2.63;;
69629;SDS011;56857;52.212;5.496;2023-12-28T04:18:55;8.00;;;3.25;;
69629;SDS011;56857;52.212;5.496;2023-12-28T04:21:20;14.00;;;3.10;;
69629;SDS011;56857;52.212;5.496;2023-12-28T04:23:45;12.85;;;4.00;;
69629;SDS011;56857;52.212;5.496;2023-12-28T04:26:11;10.50;;;2.92;;
69629;SDS011;56857;52.212;5.496;2023-12-28T04:28:36;8.20;;;3.75;;
69629;SDS011;56857;52.212;5.496;2023-12-28T04:31:02;8.23;;;3.25;;
69629;SDS011;56857;52.212;5.496;2023-12-28T04:33:28;13.50;;;3.28;;
69629;SDS011;56857;52.212;5.496;2023-12-28T04:35:53;10.55;;;2.85;;
69629;SDS011;56857;52.212;5.496;2023-12-28T04:38:19;12.02;;;2.72;;
69629;SDS011;56857;52.212;5.496;2023-12-28T04:40:44;7.03;;;2.40;;
69629;SDS011;56857;52.212;5.496;2023-12-28T04:43:09;11.90;;;3.28;;
69629;SDS011;56857;52.212;5.496;2023-12-28T04:45:35;7.77;;;2.57;;
69629;SDS011;56857;52.212;5.496;2023-12-28T04:48:00;10.88;;;2.80;;
69629;SDS011;56857;52.212;5.496;2023-12-28T04:50:25;10.50;;;3.13;;
69629;SDS011;56857;52.212;5.496;2023-12-28T04:52:51;13.45;;;2.72;;
69629;SDS011;56857;52.212;5.496;2023-12-28T04:55:16;13.30;;;3.08;;
69629;SDS011;56857;52.212;5.496;2023-12-28T04:57:41;15.05;;;3.00;;
69629;SDS011;56857;52.212;5.496;2023-12-28T05:00:07;14.10;;;3.28;;
69629;SDS011;56857;52.212;5.496;2023-12-28T05:02:33;11.50;;;2.53;;
69629;SDS011;56857;52.212;5.496;2023-12-28T05:04:58;14.10;;;4.50;;
69629;SDS011;56857;52.212;5.496;2023-12-28T05:07:23;11.13;;;2.65;;
69629;SDS011;56857;52.212;5.496;2023-12-28T05:09:49;8.63;;;2.65;;
69629;SDS011;56857;52.212;5.496;2023-12-28T05:12:14;13.75;;;2.40;;
69629;SDS011;56857;52.212;5.496;2023-12-28T05:14:39;10.50;;;3.47;;
69629;SDS011;56857;52.212;5.496;2023-12-28T05:17:05;9.82;;;2.92;;
69629;SDS011;56857;52.212;5.496;2023-12-28T05:19:30;11.67;;;3.00;;
69629;SDS011;56857;52.212;5.496;2023-12-28T05:21:55;10.93;;;3.40;;
69629;SDS011;56857;52.212;5.496;2023-12-28T05:24:21;14.60;;;3.55;;
69629;SDS011;56857;52.212;5.496;2023-12-28T05:26:46;12.73;;;2.78;;
69629;SDS011;56857;52.212;5.496;2023-12-28T05:29:11;10.57;;;2.78;;
69629;SDS011;56857;52.212;5.496;2023-12-28T05:31:36;15.60;;;3.10;;
69629;SDS011;56857;52.212;5.496;2023-12-28T05:34:02;12.23;;;3.20;;
69629;SDS011;56857;52.212;5.496;2023-12-28T05:36:27;12.20;;;2.70;;
69629;SDS011;56857;52.212;5.496;2023-12-28T05:38:53;13.15;;;3.00;;
69629;SDS011;56857;52.212;5.496;2023-12-28T05:41:18;9.23;;;2.58;;
69629;SDS011;56857;52.212;5.496;2023-12-28T05:43:43;15.77;;;3.25;;
69629;SDS011;56857;52.212;5.496;2023-12-28T05:46:09;14.48;;;3.45;;
69629;SDS011;56857;52.212;5.496;2023-12-28T05:48:34;13.18;;;2.35;;
69629;SDS011;56857;52.212;5.496;2023-12-28T05:51:00;10.47;;;3.17;;
69629;SDS011;56857;52.212;5.496;2023-12-28T05:53:25;12.85;;;2.53;;
69629;SDS011;56857;52.212;5.496;2023-12-28T05:55:51;15.02;;;3.05;;
69629;SDS011;56857;52.212;5.496;2023-12-28T05:58:16;13.52;;;2.50;;
69629;SDS011;56857;52.212;5.496;2023-12-28T06:00:41;14.40;;;3.00;;
69629;SDS011;56857;52.212;5.496;2023-12-28T06:03:07;20.23;;;3.05;;
69629;SDS011;56857;52.212;5.496;2023-12-28T06:05:32;14.77;;;3.60;;
69629;SDS011;56857;52.212;5.496;2023-12-28T06:07:57;14.40;;;3.15;;
69629;SDS011;56857;52.212;5.496;2023-12-28T06:10:23;14.03;;;3.47;;
69629;SDS011;56857;52.212;5.496;2023-12-28T06:12:48;12.02;;;2.40;;
69629;SDS011;56857;52.212;5.496;2023-12-28T06:15:13;17.47;;;3.00;;
69629;SDS011;56857;52.212;5.496;2023-12-28T06:17:39;9.82;;;2.47;;
69629;SDS011;56857;52.212;5.496;2023-12-28T06:20:04;14.47;;;2.70;;
69629;SDS011;56857;52.212;5.496;2023-12-28T06:22:30;12.43;;;2.95;;
69629;SDS011;56857;52.212;5.496;2023-12-28T06:24:55;16.20;;;2.60;;
69629;SDS011;56857;52.212;5.496;2023-12-28T06:27:21;11.60;;;3.10;;
69629;SDS011;56857;52.212;5.496;2023-12-28T06:29:47;15.25;;;3.05;;
69629;SDS011;56857;52.212;5.496;2023-12-28T06:32:12;14.80;;;2.10;;
69629;SDS011;56857;52.212;5.496;2023-12-28T06:34:39;18.15;;;3.72;;
69629;SDS011;56857;52.212;5.496;2023-12-28T06:37:04;15.80;;;3.38;;
69629;SDS011;56857;52.212;5.496;2023-12-28T06:39:29;15.18;;;2.72;;
69629;SDS011;56857;52.212;5.496;2023-12-28T06:41:55;12.82;;;2.38;;
69629;SDS011;56857;52.212;5.496;2023-12-28T06:44:20;12.87;;;3.00;;
69629;SDS011;56857;52.212;5.496;2023-12-28T06:46:45;11.20;;;3.35;;
69629;SDS011;56857;52.212;5.496;2023-12-28T06:49:11;17.90;;;4.07;;
69629;SDS011;56857;52.212;5.496;2023-12-28T06:51:37;14.02;;;3.50;;
69629;SDS011;56857;52.212;5.496;2023-12-28T06:54:02;14.68;;;3.30;;
69629;SDS011;56857;52.212;5.496;2023-12-28T06:56:27;14.30;;;3.17;;
69629;SDS011;56857;52.212;5.496;2023-12-28T06:58:53;16.93;;;3.27;;
69629;SDS011;56857;52.212;5.496;2023-12-28T07:01:18;12.88;;;2.90;;
69629;SDS011;56857;52.212;5.496;2023-12-28T07:03:43;14.03;;;2.67;;
69629;SDS011;56857;52.212;5.496;2023-12-28T07:06:09;12.95;;;2.95;;
69629;SDS011;56857;52.212;5.496;2023-12-28T07:08:34;15.27;;;3.13;;
69629;SDS011;56857;52.212;5.496;2023-12-28T07:10:59;15.98;;;3.00;;
69629;SDS011;56857;52.212;5.496;2023-12-28T07:13:25;11.07;;;2.92;;
69629;SDS011;56857;52.212;5.496;2023-12-28T07:15:51;16.92;;;3.00;;
69629;SDS011;56857;52.212;5.496;2023-12-28T07:18:16;14.32;;;3.42;;
69629;SDS011;56857;52.212;5.496;2023-12-28T07:20:41;15.57;;;2.97;;
69629;SDS011;56857;52.212;5.496;2023-12-28T07:23:07;15.00;;;3.40;;
69629;SDS011;56857;52.212;5.496;2023-12-28T07:25:32;13.27;;;3.30;;
69629;SDS011;56857;52.212;5.496;2023-12-28T07:27:57;15.57;;;3.17;;
69629;SDS011;56857;52.212;5.496;2023-12-28T07:30:23;18.00;;;3.35;;
69629;SDS011;56857;52.212;5.496;2023-12-28T07:32:48;16.07;;;3.40;;
69629;SDS011;56857;52.212;5.496;2023-12-28T07:35:13;22.90;;;3.47;;
69629;SDS011;56857;52.212;5.496;2023-12-28T07:37:39;17.97;;;3.10;;
69629;SDS011;56857;52.212;5.496;2023-12-28T07:40:04;15.63;;;3.47;;
69629;SDS011;56857;52.212;5.496;2023-12-28T07:42:30;14.30;;;3.05;;
69629;SDS011;56857;52.212;5.496;2023-12-28T07:44:55;16.05;;;3.00;;
69629;SDS011;56857;52.212;5.496;2023-12-28T07:47:21;18.88;;;3.20;;
69629;SDS011;56857;52.212;5.496;2023-12-28T07:49:46;16.33;;;3.65;;
69629;SDS011;56857;52.212;5.496;2023-12-28T07:52:11;16.92;;;3.50;;
69629;SDS011;56857;52.212;5.496;2023-12-28T07:54:37;18.33;;;3.83;;
69629;SDS011;56857;52.212;5.496;2023-12-28T07:57:02;14.95;;;2.83;;
69629;SDS011;56857;52.212;5.496;2023-12-28T07:59:27;19.25;;;3.40;;
69629;SDS011;56857;52.212;5.496;2023-12-28T08:01:52;12.67;;;2.73;;
69629;SDS011;56857;52.212;5.496;2023-12-28T08:04:18;16.15;;;3.38;;
69629;SDS011;56857;52.212;5.496;2023-12-28T08:06:43;18.85;;;3.05;;
69629;SDS011;56857;52.212;5.496;2023-12-28T08:09:08;19.17;;;3.60;;
69629;SDS011;56857;52.212;5.496;2023-12-28T08:11:34;16.80;;;3.00;;
69629;SDS011;56857;52.212;5.496;2023-12-28T08:13:59;16.95;;;3.00;;
69629;SDS011;56857;52.212;5.496;2023-12-28T08:16:25;23.23;;;3.58;;
69629;SDS011;56857;52.212;5.496;2023-12-28T08:18:50;14.50;;;2.35;;
69629;SDS011;56857;52.212;5.496;2023-12-28T08:21:15;16.40;;;4.05;;
69629;SDS011;56857;52.212;5.496;2023-12-28T08:23:41;15.23;;;3.15;;
69629;SDS011;56857;52.212;5.496;2023-12-28T08:26:06;17.90;;;3.50;;
69629;SDS011;56857;52.212;5.496;2023-12-28T08:28:31;13.07;;;3.30;;
69629;SDS011;56857;52.212;5.496;2023-12-28T08:30:56;14.50;;;2.90;;
69629;SDS011;56857;52.212;5.496;2023-12-28T08:33:22;14.40;;;3.47;;
69629;SDS011;56857;52.212;5.496;2023-12-28T08:35:48;15.93;;;3.42;;
69629;SDS011;56857;52.212;5.496;2023-12-28T08:38:13;15.15;;;2.83;;
69629;SDS011;56857;52.212;5.496;2023-12-28T08:40:38;14.80;;;3.60;;
69629;SDS011;56857;52.212;5.496;2023-12-28T08:43:04;22.10;;;3.75;;
69629;SDS011;56857;52.212;5.496;2023-12-28T08:45:29;17.85;;;4.25;;
69629;SDS011;56857;52.212;5.496;2023-12-28T08:47:54;20.20;;;5.53;;
69629;SDS011;56857;52.212;5.496;2023-12-28T08:50:19;17.70;;;3.85;;
69629;SDS011;56857;52.212;5.496;2023-12-28T08:52:45;13.63;;;3.10;;
69629;SDS011;56857;52.212;5.496;2023-12-28T08:55:10;16.23;;;3.65;;
69629;SDS011;56857;52.212;5.496;2023-12-28T08:57:35;16.92;;;3.13;;
69629;SDS011;56857;52.212;5.496;2023-12-28T09:00:01;13.88;;;3.55;;
69629;SDS011;56857;52.212;5.496;2023-12-28T09:02:29;13.80;;;3.72;;
69629;SDS011;56857;52.212;5.496;2023-12-28T09:04:54;18.35;;;4.50;;
69629;SDS011;56857;52.212;5.496;2023-12-28T09:07:20;16.45;;;4.13;;
69629;SDS011;56857;52.212;5.496;2023-12-28T09:09:45;20.05;;;4.28;;
69629;SDS011;56857;52.212;5.496;2023-12-28T09:12:11;21.88;;;3.72;;
69629;SDS011;56857;52.212;5.496;2023-12-28T09:14:37;17.85;;;3.72;;
69629;SDS011;56857;52.212;5.496;2023-12-28T09:17:03;14.60;;;3.58;;
69629;SDS011;56857;52.212;5.496;2023-12-28T09:19:28;14.43;;;3.10;;
69629;SDS011;56857;52.212;5.496;2023-12-28T09:21:53;14.70;;;3.93;;
69629;SDS011;56857;52.212;5.496;2023-12-28T09:24:19;18.20;;;3.20;;
69629;SDS011;56857;52.212;5.496;2023-12-28T09:26:44;23.65;;;3.58;;
69629;SDS011;56857;52.212;5.496;2023-12-28T09:29:09;17.95;;;2.97;;
69629;SDS011;56857;52.212;5.496;2023-12-28T09:31:35;15.30;;;4.20;;
69629;SDS011;56857;52.212;5.496;2023-12-28T09:34:00;20.48;;;5.05;;
69629;SDS011;56857;52.212;5.496;2023-12-28T09:36:26;18.57;;;3.13;;
69629;SDS011;56857;52.212;5.496;2023-12-28T09:38:51;15.55;;;3.30;;
69629;SDS011;56857;52.212;5.496;2023-12-28T09:41:16;15.47;;;3.00;;
69629;SDS011;56857;52.212;5.496;2023-12-28T09:44:00;21.40;;;3.38;;
69629;SDS011;56857;52.212;5.496;2023-12-28T09:46:47;18.63;;;2.90;;
69629;SDS011;56857;52.212;5.496;2023-12-28T09:49:12;15.15;;;3.20;;
69629;SDS011;56857;52.212;5.496;2023-12-28T09:51:37;16.73;;;3.28;;
69629;SDS011;56857;52.212;5.496;2023-12-28T09:54:03;17.38;;;3.88;;
69629;SDS011;56857;52.212;5.496;2023-12-28T09:56:29;16.73;;;3.33;;
69629;SDS011;56857;52.212;5.496;2023-12-28T09:58:56;16.75;;;3.47;;
69629;SDS011;56857;52.212;5.496;2023-12-28T10:01:22;23.85;;;3.45;;
69629;SDS011;56857;52.212;5.496;2023-12-28T10:03:48;21.45;;;3.83;;
69629;SDS011;56857;52.212;5.496;2023-12-28T10:06:14;16.08;;;3.40;;
69629;SDS011;56857;52.212;5.496;2023-12-28T10:08:44;15.75;;;3.58;;
69629;SDS011;56857;52.212;5.496;2023-12-28T10:11:17;15.55;;;3.38;;
69629;SDS011;56857;52.212;5.496;2023-12-28T10:13:43;14.50;;;2.83;;
69629;SDS011;56857;52.212;5.496;2023-12-28T10:16:09;17.42;;;3.53;;
69629;SDS011;56857;52.212;5.496;2023-12-28T10:18:36;15.80;;;4.35;;
69629;SDS011;56857;52.212;5.496;2023-12-28T10:21:01;19.95;;;3.72;;
69629;SDS011;56857;52.212;5.496;2023-12-28T10:23:27;16.45;;;3.70;;
69629;SDS011;56857;52.212;5.496;2023-12-28T10:25:55;20.30;;;4.78;;
69629;SDS011;56857;52.212;5.496;2023-12-28T10:28:21;19.00;;;3.80;;
69629;SDS011;56857;52.212;5.496;2023-12-28T10:30:47;16.00;;;3.78;;
69629;SDS011;56857;52.212;5.496;2023-12-28T10:33:15;15.35;;;4.10;;
69629;SDS011;56857;52.212;5.496;2023-12-28T10:35:40;20.25;;;4.05;;
69629;SDS011;56857;52.212;5.496;2023-12-28T10:38:06;24.10;;;3.77;;
69629;SDS011;56857;52.212;5.496;2023-12-28T10:40:32;13.63;;;3.75;;
69629;SDS011;56857;52.212;5.496;2023-12-28T10:42:58;16.23;;;3.97;;
69629;SDS011;56857;52.212;5.496;2023-12-28T10:45:25;21.10;;;4.13;;
69629;SDS011;56857;52.212;5.496;2023-12-28T10:50:35;18.15;;;3.35;;
69629;SDS011;56857;52.212;5.496;2023-12-28T10:56:04;18.10;;;3.50;;
69629;SDS011;56857;52.212;5.496;2023-12-28T10:58:55;20.35;;;3.55;;
69629;SDS011;56857;52.212;5.496;2023-12-28T11:01:31;23.70;;;3.55;;
69629;SDS011;56857;52.212;5.496;2023-12-28T11:04:02;14.85;;;3.20;;
69629;SDS011;56857;52.212;5.496;2023-12-28T11:06:32;20.58;;;3.85;;
69629;SDS011;56857;52.212;5.496;2023-12-28T11:08:58;23.70;;;5.30;;
69629;SDS011;56857;52.212;5.496;2023-12-28T11:11:26;18.85;;;5.55;;
69629;SDS011;56857;52.212;5.496;2023-12-28T11:13:52;22.83;;;5.72;;
69629;SDS011;56857;52.212;5.496;2023-12-28T11:16:20;17.23;;;3.38;;
69629;SDS011;56857;52.212;5.496;2023-12-28T11:18:47;24.42;;;4.40;;
69629;SDS011;56857;52.212;5.496;2023-12-28T11:21:13;16.60;;;4.43;;
69629;SDS011;56857;52.212;5.496;2023-12-28T11:23:39;17.95;;;4.78;;
69629;SDS011;56857;52.212;5.496;2023-12-28T11:26:14;19.20;;;3.58;;
69629;SDS011;56857;52.212;5.496;2023-12-28T11:28:44;20.13;;;3.75;;
69629;SDS011;56857;52.212;5.496;2023-12-28T11:31:16;14.93;;;4.57;;
69629;SDS011;56857;52.212;5.496;2023-12-28T11:33:43;18.52;;;3.17;;
69629;SDS011;56857;52.212;5.496;2023-12-28T11:36:21;16.92;;;3.00;;
69629;SDS011;56857;52.212;5.496;2023-12-28T11:38:50;15.38;;;3.08;;
69629;SDS011;56857;52.212;5.496;2023-12-28T11:41:19;19.67;;;3.92;;
69629;SDS011;56857;52.212;5.496;2023-12-28T11:43:51;18.77;;;3.30;;
69629;SDS011;56857;52.212;5.496;2023-12-28T11:46:17;18.50;;;2.92;;
69629;SDS011;56857;52.212;5.496;2023-12-28T11:48:43;18.95;;;3.22;;
69629;SDS011;56857;52.212;5.496;2023-12-28T11:51:08;17.30;;;4.03;;
69629;SDS011;56857;52.212;5.496;2023-12-28T11:53:33;18.95;;;3.90;;
69629;SDS011;56857;52.212;5.496;2023-12-28T11:55:59;15.90;;;3.67;;
69629;SDS011;56857;52.212;5.496;2023-12-28T11:58:25;16.48;;;3.72;;
69629;SDS011;56857;52.212;5.496;2023-12-28T12:00:51;19.60;;;3.42;;
69629;SDS011;56857;52.212;5.496;2023-12-28T12:03:16;18.17;;;4.38;;
69629;SDS011;56857;52.212;5.496;2023-12-28T12:05:41;12.77;;;3.20;;
69629;SDS011;56857;52.212;5.496;2023-12-28T12:08:08;21.67;;;3.53;;
69629;SDS011;56857;52.212;5.496;2023-12-28T12:10:35;16.05;;;3.10;;
69629;SDS011;56857;52.212;5.496;2023-12-28T12:13:00;19.65;;;3.88;;
69629;SDS011;56857;52.212;5.496;2023-12-28T12:15:25;21.48;;;3.53;;
69629;SDS011;56857;52.212;5.496;2023-12-28T12:17:51;16.42;;;3.97;;
69629;SDS011;56857;52.212;5.496;2023-12-28T12:20:16;15.45;;;4.10;;
69629;SDS011;56857;52.212;5.496;2023-12-28T12:22:42;21.48;;;4.10;;
69629;SDS011;56857;52.212;5.496;2023-12-28T12:25:08;19.73;;;3.55;;
69629;SDS011;56857;52.212;5.496;2023-12-28T12:27:34;16.50;;;2.78;;
69629;SDS011;56857;52.212;5.496;2023-12-28T12:30:01;14.07;;;3.40;;
69629;SDS011;56857;52.212;5.496;2023-12-28T12:32:27;24.92;;;4.95;;
69629;SDS011;56857;52.212;5.496;2023-12-28T12:34:53;17.23;;;3.38;;
69629;SDS011;56857;52.212;5.496;2023-12-28T12:37:18;16.23;;;4.10;;
69629;SDS011;56857;52.212;5.496;2023-12-28T12:39:44;16.65;;;3.78;;
69629;SDS011;56857;52.212;5.496;2023-12-28T12:42:12;21.70;;;4.35;;
69629;SDS011;56857;52.212;5.496;2023-12-28T12:44:38;14.35;;;3.08;;
69629;SDS011;56857;52.212;5.496;2023-12-28T12:47:04;22.17;;;3.75;;
69629;SDS011;56857;52.212;5.496;2023-12-28T12:49:29;24.95;;;3.58;;
69629;SDS011;56857;52.212;5.496;2023-12-28T12:51:54;22.83;;;4.30;;
69629;SDS011;56857;52.212;5.496;2023-12-28T12:54:20;18.45;;;4.28;;
69629;SDS011;56857;52.212;5.496;2023-12-28T12:56:45;20.83;;;4.05;;
69629;SDS011;56857;52.212;5.496;2023-12-28T12:59:11;18.95;;;3.53;;
69629;SDS011;56857;52.212;5.496;2023-12-28T13:01:37;17.77;;;3.45;;
69629;SDS011;56857;52.212;5.496;2023-12-28T13:04:02;16.67;;;3.55;;
69629;SDS011;56857;52.212;5.496;2023-12-28T13:06:28;15.70;;;5.03;;
69629;SDS011;56857;52.212;5.496;2023-12-28T13:08:53;20.40;;;4.40;;
69629;SDS011;56857;52.212;5.496;2023-12-28T13:11:18;21.48;;;3.70;;
69629;SDS011;56857;52.212;5.496;2023-12-28T13:13:43;21.00;;;8.75;;
69629;SDS011;56857;52.212;5.496;2023-12-28T13:16:09;19.63;;;5.03;;
69629;SDS011;56857;52.212;5.496;2023-12-28T13:18:34;19.27;;;4.25;;
69629;SDS011;56857;52.212;5.496;2023-12-28T13:20:59;19.83;;;3.73;;
69629;SDS011;56857;52.212;5.496;2023-12-28T13:23:25;19.95;;;6.15;;
69629;SDS011;56857;52.212;5.496;2023-12-28T13:25:50;26.95;;;10.02;;
69629;SDS011;56857;52.212;5.496;2023-12-28T13:28:15;47.20;;;17.50;;
69629;SDS011;56857;52.212;5.496;2023-12-28T13:30:41;32.78;;;12.23;;
69629;SDS011;56857;52.212;5.496;2023-12-28T13:33:06;27.30;;;7.60;;
69629;SDS011;56857;52.212;5.496;2023-12-28T13:35:31;25.83;;;6.50;;
69629;SDS011;56857;52.212;5.496;2023-12-28T13:37:57;19.05;;;4.18;;
69629;SDS011;56857;52.212;5.496;2023-12-28T13:40:22;17.48;;;3.83;;
69629;SDS011;56857;52.212;5.496;2023-12-28T13:42:48;21.10;;;6.53;;
69629;SDS011;56857;52.212;5.496;2023-12-28T13:45:13;21.25;;;4.63;;
69629;SDS011;56857;52.212;5.496;2023-12-28T13:47:38;21.83;;;5.15;;
69629;SDS011;56857;52.212;5.496;2023-12-28T13:50:04;26.65;;;6.88;;
69629;SDS011;56857;52.212;5.496;2023-12-28T13:52:30;18.73;;;5.45;;
69629;SDS011;56857;52.212;5.496;2023-12-28T13:54:55;18.58;;;5.20;;
69629;SDS011;56857;52.212;5.496;2023-12-28T13:57:21;19.52;;;4.05;;
69629;SDS011;56857;52.212;5.496;2023-12-28T13:59:46;14.35;;;3.78;;
69629;SDS011;56857;52.212;5.496;2023-12-28T14:02:11;20.10;;;4.10;;
69629;SDS011;56857;52.212;5.496;2023-12-28T14:04:37;19.02;;;4.25;;
69629;SDS011;56857;52.212;5.496;2023-12-28T14:07:02;18.45;;;3.90;;
69629;SDS011;56857;52.212;5.496;2023-12-28T14:09:27;16.48;;;4.00;;
69629;SDS011;56857;52.212;5.496;2023-12-28T14:11:52;17.83;;;4.20;;
69629;SDS011;56857;52.212;5.496;2023-12-28T14:14:18;16.77;;;4.65;;
69629;SDS011;56857;52.212;5.496;2023-12-28T14:16:43;20.95;;;3.65;;
69629;SDS011;56857;52.212;5.496;2023-12-28T14:19:08;15.55;;;3.65;;
69629;SDS011;56857;52.212;5.496;2023-12-28T14:21:37;19.50;;;3.75;;
69629;SDS011;56857;52.212;5.496;2023-12-28T14:24:04;16.20;;;3.40;;
69629;SDS011;56857;52.212;5.496;2023-12-28T14:26:31;20.20;;;4.55;;
69629;SDS011;56857;52.212;5.496;2023-12-28T14:28:57;20.58;;;3.60;;
69629;SDS011;56857;52.212;5.496;2023-12-28T14:31:23;21.48;;;4.93;;
69629;SDS011;56857;52.212;5.496;2023-12-28T14:33:49;17.55;;;4.13;;
69629;SDS011;56857;52.212;5.496;2023-12-28T14:36:34;16.08;;;4.05;;
69629;SDS011;56857;52.212;5.496;2023-12-28T14:39:00;19.83;;;4.45;;
69629;SDS011;56857;52.212;5.496;2023-12-28T14:41:27;18.05;;;4.07;;